sensor_id;sensor_type;location;lat;lon;timestamp;temperature;humidity
13596;DHT22;6868;52.544;13.416;2022-07-24T01:47:50;16.20;99.90
13596;DHT22;6868;52.544;13.416;2022-07-24T01:50:16;16.20;99.90
13596;DHT22;6868;52.544;13.416;2022-07-24T01:52:43;16.20;99.90
13596;DHT22;6868;52.544;13.416;2022-07-24T01:55:10;16.10;99.90
13596;DHT22;6868;52.544;13.416;2022-07-24T01:57:37;16.10;99.90
13596;DHT22;6868;52.544;13.416;2022-07-24T02:00:05;16.20;99.90
13596;DHT22;6868;52.544;13.416;2022-07-24T02:02:34;16.10;99.90
13596;DHT22;6868;52.544;13.416;2022-07-24T02:05:03;16.50;99.90
13596;DHT22;6868;52.544;13.416;2022-07-24T02:07:30;16.20;99.90
13596;DHT22;6868;52.544;13.416;2022-07-24T02:09:57;16.10;99.90
13596;DHT22;6868;52.544;13.416;2022-07-24T02:12:23;16.10;99.90
13596;DHT22;6868;52.544;13.416;2022-07-24T02:14:52;16.10;99.90
13596;DHT22;6868;52.544;13.416;2022-07-24T02:17:19;16.10;99.90
13596;DHT22;6868;52.544;13.416;2022-07-24T02:19:46;15.90;99.90
13596;DHT22;6868;52.544;13.416;2022-07-24T02:22:14;15.90;99.90
13596;DHT22;6868;52.544;13.416;2022-07-24T02:24:41;15.90;99.90
13596;DHT22;6868;52.544;13.416;2022-07-24T02:27:08;16.20;99.90
13596;DHT22;6868;52.544;13.416;2022-07-24T02:29:34;16.00;99.90
13596;DHT22;6868;52.544;13.416;2022-07-24T02:32:01;16.00;99.90
13596;DHT22;6868;52.544;13.416;2022-07-24T02:34:28;16.00;99.90
13596;DHT22;6868;52.544;13.416;2022-07-24T02:36:55;15.90;99.90
13596;DHT22;6868;52.544;13.416;2022-07-24T02:39:23;15.90;99.90
13596;DHT22;6868;52.544;13.416;2022-07-24T02:41:49;15.80;99.90
13596;DHT22;6868;52.544;13.416;2022-07-24T02:44:16;16.00;99.90
13596;DHT22;6868;52.544;13.416;2022-07-24T02:46:43;15.90;99.90
13596;DHT22;6868;52.544;13.416;2022-07-24T02:49:10;16.10;99.90
13596;DHT22;6868;52.544;13.416;2022-07-24T02:51:37;15.70;99.90
13596;DHT22;6868;52.544;13.416;2022-07-24T02:58:59;15.50;99.90
13596;DHT22;6868;52.544;13.416;2022-07-24T03:01:26;15.60;99.90
13596;DHT22;6868;52.544;13.416;2022-07-24T03:03:53;15.60;99.90
13596;DHT22;6868;52.544;13.416;2022-07-24T03:06:19;15.50;99.90
13596;DHT22;6868;52.544;13.416;2022-07-24T03:08:46;15.50;99.90
13596;DHT22;6868;52.544;13.416;2022-07-24T03:11:13;15.60;99.90
13596;DHT22;6868;52.544;13.416;2022-07-24T03:13:39;15.60;99.90
13596;DHT22;6868;52.544;13.416;2022-07-24T03:16:08;15.60;99.90
13596;DHT22;6868;52.544;13.416;2022-07-24T03:18:35;15.50;99.90
13596;DHT22;6868;52.544;13.416;2022-07-24T03:21:02;15.60;99.90
13596;DHT22;6868;52.544;13.416;2022-07-24T03:23:28;15.50;99.90
13596;DHT22;6868;52.544;13.416;2022-07-24T03:25:55;15.50;99.90
13596;DHT22;6868;52.544;13.416;2022-07-24T03:28:23;15.60;99.90
13596;DHT22;6868;52.544;13.416;2022-07-24T03:30:49;15.50;99.90
13596;DHT22;6868;52.544;13.416;2022-07-24T03:33:17;15.40;99.90
13596;DHT22;6868;52.544;13.416;2022-07-24T03:35:44;15.70;99.90
13596;DHT22;6868;52.544;13.416;2022-07-24T03:38:11;15.40;99.90
13596;DHT22;6868;52.544;13.416;2022-07-24T03:40:37;15.50;99.90
13596;DHT22;6868;52.544;13.416;2022-07-24T03:43:04;15.50;99.90
13596;DHT22;6868;52.544;13.416;2022-07-24T03:45:31;15.60;99.90
13596;DHT22;6868;52.544;13.416;2022-07-24T03:47:58;15.60;99.90
13596;DHT22;6868;52.544;13.416;2022-07-24T03:50:26;15.50;99.90
13596;DHT22;6868;52.544;13.416;2022-07-24T03:52:53;15.50;99.90
13596;DHT22;6868;52.544;13.416;2022-07-24T03:55:19;15.50;99.90
13596;DHT22;6868;52.544;13.416;2022-07-24T03:57:48;15.60;99.90
13596;DHT22;6868;52.544;13.416;2022-07-24T04:00:15;15.70;99.90
13596;DHT22;6868;52.544;13.416;2022-07-24T04:02:42;15.70;99.90
13596;DHT22;6868;52.544;13.416;2022-07-24T04:05:09;15.70;99.90
13596;DHT22;6868;52.544;13.416;2022-07-24T04:07:39;15.60;99.90
13596;DHT22;6868;52.544;13.416;2022-07-24T04:10:07;15.80;99.90
13596;DHT22;6868;52.544;13.416;2022-07-24T04:12:34;15.70;99.90
13596;DHT22;6868;52.544;13.416;2022-07-24T04:15:00;15.70;99.90
13596;DHT22;6868;52.544;13.416;2022-07-24T04:17:29;15.60;99.90
13596;DHT22;6868;52.544;13.416;2022-07-24T04:19:55;15.50;99.90
13596;DHT22;6868;52.544;13.416;2022-07-24T04:22:22;15.60;99.90
13596;DHT22;6868;52.544;13.416;2022-07-24T04:24:50;15.60;99.90
13596;DHT22;6868;52.544;13.416;2022-07-24T04:27:17;15.70;99.90
13596;DHT22;6868;52.544;13.416;2022-07-24T04:29:44;16.00;99.90
13596;DHT22;6868;52.544;13.416;2022-07-24T04:32:10;15.90;99.90
13596;DHT22;6868;52.544;13.416;2022-07-24T04:34:37;15.80;99.90
13596;DHT22;6868;52.544;13.416;2022-07-24T04:37:05;15.90;99.90
13596;DHT22;6868;52.544;13.416;2022-07-24T04:39:33;15.90;99.90
13596;DHT22;6868;52.544;13.416;2022-07-24T04:42:01;16.00;99.90
13596;DHT22;6868;52.544;13.416;2022-07-24T04:44:27;15.90;99.90
13596;DHT22;6868;52.544;13.416;2022-07-24T04:46:54;15.90;99.90
13596;DHT22;6868;52.544;13.416;2022-07-24T04:49:21;15.90;99.90
13596;DHT22;6868;52.544;13.416;2022-07-24T04:51:47;16.00;99.90
13596;DHT22;6868;52.544;13.416;2022-07-24T04:54:14;16.10;99.90
13596;DHT22;6868;52.544;13.416;2022-07-24T04:56:42;16.10;99.90
13596;DHT22;6868;52.544;13.416;2022-07-24T04:59:10;16.50;99.90
13596;DHT22;6868;52.544;13.416;2022-07-24T05:01:38;16.60;99.90
13596;DHT22;6868;52.544;13.416;2022-07-24T05:04:04;17.10;99.90
13596;DHT22;6868;52.544;13.416;2022-07-24T05:06:31;17.90;99.90
13596;DHT22;6868;52.544;13.416;2022-07-24T05:08:57;18.40;99.90
13596;DHT22;6868;52.544;13.416;2022-07-24T05:11:24;18.80;99.90
13596;DHT22;6868;52.544;13.416;2022-07-24T05:13:51;19.00;99.90
13596;DHT22;6868;52.544;13.416;2022-07-24T05:16:19;19.20;99.90
13596;DHT22;6868;52.544;13.416;2022-07-24T05:18:46;19.20;99.90
13596;DHT22;6868;52.544;13.416;2022-07-24T05:21:15;19.10;99.90
13596;DHT22;6868;52.544;13.416;2022-07-24T05:23:42;19.20;99.90
13596;DHT22;6868;52.544;13.416;2022-07-24T05:26:10;19.00;99.90
13596;DHT22;6868;52.544;13.416;2022-07-24T05:28:37;18.80;99.90
13596;DHT22;6868;52.544;13.416;2022-07-24T05:31:04;18.90;99.90
13596;DHT22;6868;52.544;13.416;2022-07-24T05:33:32;19.20;99.90
13596;DHT22;6868;52.544;13.416;2022-07-24T05:35:59;19.50;99.90
13596;DHT22;6868;52.544;13.416;2022-07-24T05:38:27;19.30;99.90
13596;DHT22;6868;52.544;13.416;2022-07-24T05:40:54;19.00;99.90
13596;DHT22;6868;52.544;13.416;2022-07-24T05:43:20;18.80;99.90
13596;DHT22;6868;52.544;13.416;2022-07-24T05:45:47;19.00;99.90
13596;DHT22;6868;52.544;13.416;2022-07-24T05:48:14;19.10;99.90
13596;DHT22;6868;52.544;13.416;2022-07-24T05:50:47;19.30;99.90
13596;DHT22;6868;52.544;13.416;2022-07-24T05:53:13;19.40;99.90
13596;DHT22;6868;52.544;13.416;2022-07-24T05:55:41;19.50;99.90
13596;DHT22;6868;52.544;13.416;2022-07-24T05:58:07;19.80;99.90
13596;DHT22;6868;52.544;13.416;2022-07-24T06:00:37;20.20;99.90
13596;DHT22;6868;52.544;13.416;2022-07-24T06:03:03;20.30;99.90
13596;DHT22;6868;52.544;13.416;2022-07-24T06:05:30;20.60;99.90
13596;DHT22;6868;52.544;13.416;2022-07-24T06:07:59;20.50;99.90
13596;DHT22;6868;52.544;13.416;2022-07-24T06:10:27;20.30;99.90
13596;DHT22;6868;52.544;13.416;2022-07-24T06:12:54;20.30;99.90
13596;DHT22;6868;52.544;13.416;2022-07-24T06:15:20;20.30;99.90
13596;DHT22;6868;52.544;13.416;2022-07-24T06:17:47;20.50;99.90
13596;DHT22;6868;52.544;13.416;2022-07-24T06:20:14;20.60;99.90
13596;DHT22;6868;52.544;13.416;2022-07-24T06:22:42;20.90;99.90
13596;DHT22;6868;52.544;13.416;2022-07-24T06:25:11;20.90;99.90
13596;DHT22;6868;52.544;13.416;2022-07-24T06:27:39;21.10;99.90
13596;DHT22;6868;52.544;13.416;2022-07-24T06:37:27;21.50;99.90
13596;DHT22;6868;52.544;13.416;2022-07-24T06:39:54;22.10;99.90
13596;DHT22;6868;52.544;13.416;2022-07-24T06:49:46;23.80;99.90
13596;DHT22;6868;52.544;13.416;2022-07-24T06:52:13;23.70;99.90
13596;DHT22;6868;52.544;13.416;2022-07-24T06:54:39;24.00;99.90
13596;DHT22;6868;52.544;13.416;2022-07-24T06:57:09;24.30;99.90
13596;DHT22;6868;52.544;13.416;2022-07-24T06:59:36;24.30;99.90
13596;DHT22;6868;52.544;13.416;2022-07-24T07:02:05;24.30;99.90
13596;DHT22;6868;52.544;13.416;2022-07-24T07:04:34;24.60;99.90
13596;DHT22;6868;52.544;13.416;2022-07-24T07:07:05;25.50;99.90
13596;DHT22;6868;52.544;13.416;2022-07-24T07:09:32;25.80;99.90
13596;DHT22;6868;52.544;13.416;2022-07-24T07:12:00;26.10;99.90
13596;DHT22;6868;52.544;13.416;2022-07-24T07:14:27;25.60;99.90
13596;DHT22;6868;52.544;13.416;2022-07-24T07:16:54;25.10;99.90
13596;DHT22;6868;52.544;13.416;2022-07-24T07:19:20;25.10;99.90
13596;DHT22;6868;52.544;13.416;2022-07-24T07:21:47;25.00;99.90
13596;DHT22;6868;52.544;13.416;2022-07-24T07:24:15;25.10;99.90
13596;DHT22;6868;52.544;13.416;2022-07-24T07:26:42;24.80;99.90
13596;DHT22;6868;52.544;13.416;2022-07-24T07:29:08;24.90;99.90
13596;DHT22;6868;52.544;13.416;2022-07-24T07:31:35;24.50;99.90
13596;DHT22;6868;52.544;13.416;2022-07-24T07:34:02;24.60;99.90
13596;DHT22;6868;52.544;13.416;2022-07-24T07:36:29;25.00;99.90
13596;DHT22;6868;52.544;13.416;2022-07-24T07:38:56;25.20;99.90
13596;DHT22;6868;52.544;13.416;2022-07-24T07:41:27;25.30;99.90
13596;DHT22;6868;52.544;13.416;2022-07-24T07:43:57;25.40;99.90
13596;DHT22;6868;52.544;13.416;2022-07-24T07:46:24;25.50;99.60
13596;DHT22;6868;52.544;13.416;2022-07-24T07:48:51;25.60;98.30
13596;DHT22;6868;52.544;13.416;2022-07-24T07:51:18;25.00;99.90
13596;DHT22;6868;52.544;13.416;2022-07-24T07:53:45;25.10;99.10
13596;DHT22;6868;52.544;13.416;2022-07-24T07:56:12;25.60;97.60
13596;DHT22;6868;52.544;13.416;2022-07-24T07:58:40;25.80;96.40
13596;DHT22;6868;52.544;13.416;2022-07-24T08:01:07;25.80;96.00
13596;DHT22;6868;52.544;13.416;2022-07-24T08:03:33;25.60;96.60
13596;DHT22;6868;52.544;13.416;2022-07-24T08:06:00;25.30;94.60
13596;DHT22;6868;52.544;13.416;2022-07-24T08:08:29;25.40;97.30
13596;DHT22;6868;52.544;13.416;2022-07-24T08:10:56;25.80;95.70
13596;DHT22;6868;52.544;13.416;2022-07-24T08:13:23;25.90;94.10
13596;DHT22;6868;52.544;13.416;2022-07-24T08:15:51;26.00;93.30
13596;DHT22;6868;52.544;13.416;2022-07-24T08:23:12;25.70;90.60
13596;DHT22;6868;52.544;13.416;2022-07-24T08:25:39;25.70;90.00
13596;DHT22;6868;52.544;13.416;2022-07-24T08:28:08;25.40;90.70
13596;DHT22;6868;52.544;13.416;2022-07-24T08:30:36;25.40;91.40
13596;DHT22;6868;52.544;13.416;2022-07-24T08:33:04;25.20;94.00
13596;DHT22;6868;52.544;13.416;2022-07-24T08:35:31;25.30;92.80
13596;DHT22;6868;52.544;13.416;2022-07-24T08:37:58;24.80;92.30
13596;DHT22;6868;52.544;13.416;2022-07-24T08:42:51;23.50;94.80
13596;DHT22;6868;52.544;13.416;2022-07-24T08:45:18;23.20;95.80
13596;DHT22;6868;52.544;13.416;2022-07-24T08:47:45;23.00;94.20
13596;DHT22;6868;52.544;13.416;2022-07-24T08:50:13;22.80;95.50
13596;DHT22;6868;52.544;13.416;2022-07-24T08:52:40;22.50;98.30
13596;DHT22;6868;52.544;13.416;2022-07-24T08:55:07;22.30;99.90
13596;DHT22;6868;52.544;13.416;2022-07-24T08:57:33;22.30;99.90
13596;DHT22;6868;52.544;13.416;2022-07-24T09:00:00;22.40;99.90
13596;DHT22;6868;52.544;13.416;2022-07-24T09:02:27;22.20;99.90
13596;DHT22;6868;52.544;13.416;2022-07-24T09:04:57;22.20;99.90
13596;DHT22;6868;52.544;13.416;2022-07-24T09:07:26;22.20;99.90
13596;DHT22;6868;52.544;13.416;2022-07-24T09:09:57;22.30;99.90
13596;DHT22;6868;52.544;13.416;2022-07-24T09:12:23;22.60;99.90
13596;DHT22;6868;52.544;13.416;2022-07-24T09:14:50;22.60;99.90
13596;DHT22;6868;52.544;13.416;2022-07-24T09:17:18;22.60;99.90
13596;DHT22;6868;52.544;13.416;2022-07-24T09:19:46;22.70;99.90
13596;DHT22;6868;52.544;13.416;2022-07-24T09:22:16;22.90;99.90
13596;DHT22;6868;52.544;13.416;2022-07-24T09:24:44;22.90;99.90
13596;DHT22;6868;52.544;13.416;2022-07-24T09:27:13;22.90;99.90
13596;DHT22;6868;52.544;13.416;2022-07-24T09:29:40;23.20;99.90
13596;DHT22;6868;52.544;13.416;2022-07-24T09:32:07;23.20;99.90
13596;DHT22;6868;52.544;13.416;2022-07-24T09:34:37;23.20;99.90
13596;DHT22;6868;52.544;13.416;2022-07-24T09:37:04;23.30;99.90
13596;DHT22;6868;52.544;13.416;2022-07-24T09:39:32;23.20;99.90
13596;DHT22;6868;52.544;13.416;2022-07-24T09:42:01;23.20;99.90
13596;DHT22;6868;52.544;13.416;2022-07-24T09:44:28;23.10;99.90
13596;DHT22;6868;52.544;13.416;2022-07-24T09:46:59;23.10;99.90
13596;DHT22;6868;52.544;13.416;2022-07-24T09:49:26;23.20;99.90
13596;DHT22;6868;52.544;13.416;2022-07-24T09:52:07;23.00;99.90
13596;DHT22;6868;52.544;13.416;2022-07-24T09:54:36;23.00;99.90
13596;DHT22;6868;52.544;13.416;2022-07-24T09:57:15;22.80;99.90
13596;DHT22;6868;52.544;13.416;2022-07-24T09:59:44;23.00;99.90
13596;DHT22;6868;52.544;13.416;2022-07-24T10:02:14;23.30;99.90
13596;DHT22;6868;52.544;13.416;2022-07-24T10:04:42;23.60;99.90
13596;DHT22;6868;52.544;13.416;2022-07-24T10:07:09;23.80;99.90
13596;DHT22;6868;52.544;13.416;2022-07-24T10:09:39;24.00;99.90
13596;DHT22;6868;52.544;13.416;2022-07-24T10:12:09;24.00;99.90
13596;DHT22;6868;52.544;13.416;2022-07-24T10:14:42;23.70;99.10
13596;DHT22;6868;52.544;13.416;2022-07-24T10:17:10;23.80;99.20
13596;DHT22;6868;52.544;13.416;2022-07-24T10:19:40;23.90;99.40
13596;DHT22;6868;52.544;13.416;2022-07-24T10:22:11;24.00;99.30
13596;DHT22;6868;52.544;13.416;2022-07-24T10:24:48;24.00;99.90
13596;DHT22;6868;52.544;13.416;2022-07-24T10:27:22;24.20;99.90
13596;DHT22;6868;52.544;13.416;2022-07-24T10:29:50;24.10;97.80
13596;DHT22;6868;52.544;13.416;2022-07-24T10:32:18;24.30;99.00
13596;DHT22;6868;52.544;13.416;2022-07-24T10:34:46;24.50;99.90
13596;DHT22;6868;52.544;13.416;2022-07-24T10:37:15;24.70;99.00
13596;DHT22;6868;52.544;13.416;2022-07-24T10:39:47;24.80;99.50
13596;DHT22;6868;52.544;13.416;2022-07-24T10:42:18;24.50;99.60
13596;DHT22;6868;52.544;13.416;2022-07-24T10:44:45;24.40;99.80
13596;DHT22;6868;52.544;13.416;2022-07-24T10:47:35;24.40;99.90
13596;DHT22;6868;52.544;13.416;2022-07-24T10:50:02;24.50;99.90
13596;DHT22;6868;52.544;13.416;2022-07-24T10:52:31;24.50;99.90
13596;DHT22;6868;52.544;13.416;2022-07-24T10:57:47;24.60;99.40
13596;DHT22;6868;52.544;13.416;2022-07-24T11:00:20;24.60;99.10
13596;DHT22;6868;52.544;13.416;2022-07-24T11:02:55;24.50;99.60
13596;DHT22;6868;52.544;13.416;2022-07-24T11:05:23;24.50;99.90
13596;DHT22;6868;52.544;13.416;2022-07-24T11:10:46;24.70;99.00
13596;DHT22;6868;52.544;13.416;2022-07-24T11:18:42;25.00;98.20
13596;DHT22;6868;52.544;13.416;2022-07-24T11:21:30;25.20;97.20
13596;DHT22;6868;52.544;13.416;2022-07-24T11:26:45;25.20;94.60
13596;DHT22;6868;52.544;13.416;2022-07-24T11:29:12;25.20;94.40
13596;DHT22;6868;52.544;13.416;2022-07-24T11:31:39;25.10;95.40
13596;DHT22;6868;52.544;13.416;2022-07-24T11:34:07;25.20;93.90
13596;DHT22;6868;52.544;13.416;2022-07-24T11:36:39;25.30;94.50
13596;DHT22;6868;52.544;13.416;2022-07-24T11:39:06;25.40;93.90
13596;DHT22;6868;52.544;13.416;2022-07-24T11:41:42;25.50;92.80
13596;DHT22;6868;52.544;13.416;2022-07-24T11:44:09;25.50;93.30
13596;DHT22;6868;52.544;13.416;2022-07-24T11:46:37;25.70;94.00
13596;DHT22;6868;52.544;13.416;2022-07-24T11:49:05;25.90;93.80
13596;DHT22;6868;52.544;13.416;2022-07-24T11:51:39;26.10;93.60
13596;DHT22;6868;52.544;13.416;2022-07-24T11:54:07;26.40;93.10
13596;DHT22;6868;52.544;13.416;2022-07-24T11:56:34;26.40;90.40
13596;DHT22;6868;52.544;13.416;2022-07-24T11:59:01;26.40;90.40
13596;DHT22;6868;52.544;13.416;2022-07-24T12:01:27;26.60;90.40
13596;DHT22;6868;52.544;13.416;2022-07-24T12:03:56;26.60;88.30
13596;DHT22;6868;52.544;13.416;2022-07-24T12:06:23;26.80;89.50
13596;DHT22;6868;52.544;13.416;2022-07-24T12:08:50;26.60;85.10
13596;DHT22;6868;52.544;13.416;2022-07-24T12:11:20;26.30;87.00
13596;DHT22;6868;52.544;13.416;2022-07-24T12:13:48;26.20;89.30
13596;DHT22;6868;52.544;13.416;2022-07-24T12:16:22;26.40;86.30
13596;DHT22;6868;52.544;13.416;2022-07-24T12:18:49;26.40;86.20
13596;DHT22;6868;52.544;13.416;2022-07-24T12:21:15;26.40;85.20
13596;DHT22;6868;52.544;13.416;2022-07-24T12:23:43;26.40;84.00
13596;DHT22;6868;52.544;13.416;2022-07-24T12:26:10;26.50;86.70
13596;DHT22;6868;52.544;13.416;2022-07-24T12:28:38;26.70;87.60
13596;DHT22;6868;52.544;13.416;2022-07-24T12:31:05;26.80;84.60
13596;DHT22;6868;52.544;13.416;2022-07-24T12:33:33;26.90;84.20
13596;DHT22;6868;52.544;13.416;2022-07-24T12:36:00;27.20;83.80
13596;DHT22;6868;52.544;13.416;2022-07-24T12:38:27;27.10;82.40
13596;DHT22;6868;52.544;13.416;2022-07-24T12:41:01;27.10;81.50
13596;DHT22;6868;52.544;13.416;2022-07-24T12:43:27;27.10;80.30
13596;DHT22;6868;52.544;13.416;2022-07-24T12:46:05;27.00;77.80
13596;DHT22;6868;52.544;13.416;2022-07-24T12:48:32;27.00;78.10
13596;DHT22;6868;52.544;13.416;2022-07-24T12:51:03;27.10;78.60
13596;DHT22;6868;52.544;13.416;2022-07-24T12:53:32;27.10;74.40
13596;DHT22;6868;52.544;13.416;2022-07-24T12:56:06;27.20;75.40
13596;DHT22;6868;52.544;13.416;2022-07-24T12:58:52;27.30;76.80
13596;DHT22;6868;52.544;13.416;2022-07-24T13:01:21;27.50;73.50
13596;DHT22;6868;52.544;13.416;2022-07-24T13:03:52;27.70;71.30
13596;DHT22;6868;52.544;13.416;2022-07-24T13:06:29;27.80;68.70
13596;DHT22;6868;52.544;13.416;2022-07-24T13:08:57;27.90;67.80
13596;DHT22;6868;52.544;13.416;2022-07-24T13:11:23;27.90;70.60
13596;DHT22;6868;52.544;13.416;2022-07-24T13:13:51;27.80;68.30
13596;DHT22;6868;52.544;13.416;2022-07-24T13:16:17;27.80;65.90
13596;DHT22;6868;52.544;13.416;2022-07-24T13:18:46;27.70;65.20
13596;DHT22;6868;52.544;13.416;2022-07-24T13:21:13;27.60;63.90
13596;DHT22;6868;52.544;13.416;2022-07-24T13:23:40;27.50;64.90
13596;DHT22;6868;52.544;13.416;2022-07-24T13:26:07;27.50;64.60
13596;DHT22;6868;52.544;13.416;2022-07-24T13:28:34;27.50;65.80
13596;DHT22;6868;52.544;13.416;2022-07-24T13:31:01;27.70;64.40
13596;DHT22;6868;52.544;13.416;2022-07-24T13:33:30;27.80;62.90
13596;DHT22;6868;52.544;13.416;2022-07-24T13:35:58;27.70;64.20
13596;DHT22;6868;52.544;13.416;2022-07-24T13:38:25;27.50;62.70
13596;DHT22;6868;52.544;13.416;2022-07-24T13:40:51;27.60;63.20
13596;DHT22;6868;52.544;13.416;2022-07-24T13:43:18;27.80;62.00
13596;DHT22;6868;52.544;13.416;2022-07-24T13:45:45;27.90;61.40
13596;DHT22;6868;52.544;13.416;2022-07-24T13:48:12;27.90;60.60
13596;DHT22;6868;52.544;13.416;2022-07-24T13:50:38;27.80;61.10
13596;DHT22;6868;52.544;13.416;2022-07-24T13:53:09;27.80;60.70
13596;DHT22;6868;52.544;13.416;2022-07-24T13:55:36;27.60;61.00
13596;DHT22;6868;52.544;13.416;2022-07-24T13:58:03;27.70;61.60
13596;DHT22;6868;52.544;13.416;2022-07-24T14:00:30;27.80;61.40
13596;DHT22;6868;52.544;13.416;2022-07-24T14:02:57;27.80;60.60
13596;DHT22;6868;52.544;13.416;2022-07-24T14:07:54;27.60;58.00
13596;DHT22;6868;52.544;13.416;2022-07-24T14:10:23;27.50;60.80
13596;DHT22;6868;52.544;13.416;2022-07-24T14:12:50;27.50;60.70
13596;DHT22;6868;52.544;13.416;2022-07-24T14:15:17;27.40;61.10
13596;DHT22;6868;52.544;13.416;2022-07-24T14:17:44;27.50;60.60
13596;DHT22;6868;52.544;13.416;2022-07-24T14:20:11;27.50;58.10
13596;DHT22;6868;52.544;13.416;2022-07-24T14:22:39;27.40;57.00
13596;DHT22;6868;52.544;13.416;2022-07-24T14:25:06;27.40;57.10
13596;DHT22;6868;52.544;13.416;2022-07-24T14:27:37;27.50;57.30
13596;DHT22;6868;52.544;13.416;2022-07-24T14:30:04;27.60;57.10
13596;DHT22;6868;52.544;13.416;2022-07-24T14:32:31;27.40;58.10
13596;DHT22;6868;52.544;13.416;2022-07-24T14:34:58;27.50;55.90
13596;DHT22;6868;52.544;13.416;2022-07-24T14:37:25;27.60;55.90
13596;DHT22;6868;52.544;13.416;2022-07-24T14:39:52;27.70;55.80
13596;DHT22;6868;52.544;13.416;2022-07-24T14:42:19;27.60;55.40
13596;DHT22;6868;52.544;13.416;2022-07-24T14:44:47;27.60;56.40
13596;DHT22;6868;52.544;13.416;2022-07-24T14:47:14;27.60;55.40
13596;DHT22;6868;52.544;13.416;2022-07-24T14:49:41;27.70;55.00
13596;DHT22;6868;52.544;13.416;2022-07-24T14:52:08;27.90;55.80
13596;DHT22;6868;52.544;13.416;2022-07-24T14:54:34;28.00;56.10
13596;DHT22;6868;52.544;13.416;2022-07-24T14:57:01;28.20;55.20
13596;DHT22;6868;52.544;13.416;2022-07-24T14:59:29;28.30;54.50
13596;DHT22;6868;52.544;13.416;2022-07-24T15:01:57;28.40;51.50
13596;DHT22;6868;52.544;13.416;2022-07-24T15:04:24;28.20;52.40
13596;DHT22;6868;52.544;13.416;2022-07-24T15:06:50;28.00;51.10
13596;DHT22;6868;52.544;13.416;2022-07-24T15:09:17;27.80;51.90
13596;DHT22;6868;52.544;13.416;2022-07-24T15:11:44;27.90;53.50
13596;DHT22;6868;52.544;13.416;2022-07-24T15:14:11;27.90;52.10
13596;DHT22;6868;52.544;13.416;2022-07-24T15:16:38;28.00;51.40
13596;DHT22;6868;52.544;13.416;2022-07-24T15:19:06;28.10;50.30
13596;DHT22;6868;52.544;13.416;2022-07-24T15:21:32;28.20;48.70
13596;DHT22;6868;52.544;13.416;2022-07-24T15:23:59;28.20;49.10
13596;DHT22;6868;52.544;13.416;2022-07-24T15:26:26;28.40;47.40
13596;DHT22;6868;52.544;13.416;2022-07-24T15:31:21;28.60;46.70
13596;DHT22;6868;52.544;13.416;2022-07-24T15:33:47;28.70;48.10
13596;DHT22;6868;52.544;13.416;2022-07-24T15:36:16;28.70;48.80
13596;DHT22;6868;52.544;13.416;2022-07-24T15:38:42;28.80;49.00
13596;DHT22;6868;52.544;13.416;2022-07-24T15:41:09;28.70;48.00
13596;DHT22;6868;52.544;13.416;2022-07-24T15:43:36;28.50;49.00
13596;DHT22;6868;52.544;13.416;2022-07-24T15:46:03;28.40;49.00
13596;DHT22;6868;52.544;13.416;2022-07-24T15:48:30;28.30;49.00
13596;DHT22;6868;52.544;13.416;2022-07-24T15:50:56;28.30;49.80
13596;DHT22;6868;52.544;13.416;2022-07-24T15:53:24;28.30;47.80
13596;DHT22;6868;52.544;13.416;2022-07-24T15:55:51;28.20;48.10
13596;DHT22;6868;52.544;13.416;2022-07-24T15:58:18;28.30;48.00
13596;DHT22;6868;52.544;13.416;2022-07-24T16:00:45;28.30;47.90
13596;DHT22;6868;52.544;13.416;2022-07-24T16:03:12;28.30;47.80
13596;DHT22;6868;52.544;13.416;2022-07-24T16:05:39;28.40;48.90
13596;DHT22;6868;52.544;13.416;2022-07-24T16:08:05;28.30;49.30
13596;DHT22;6868;52.544;13.416;2022-07-24T16:10:34;28.30;49.30
13596;DHT22;6868;52.544;13.416;2022-07-24T16:13:00;28.30;49.10
13596;DHT22;6868;52.544;13.416;2022-07-24T16:15:27;28.30;48.80
13596;DHT22;6868;52.544;13.416;2022-07-24T16:17:54;28.30;48.90
13596;DHT22;6868;52.544;13.416;2022-07-24T16:20:21;28.30;48.90
13596;DHT22;6868;52.544;13.416;2022-07-24T16:22:47;28.30;49.20
13596;DHT22;6868;52.544;13.416;2022-07-24T16:25:14;28.20;48.70
13596;DHT22;6868;52.544;13.416;2022-07-24T16:27:43;28.00;49.50
13596;DHT22;6868;52.544;13.416;2022-07-24T16:30:09;28.00;49.50
13596;DHT22;6868;52.544;13.416;2022-07-24T16:32:36;28.10;50.20
13596;DHT22;6868;52.544;13.416;2022-07-24T16:35:03;28.00;50.20
13596;DHT22;6868;52.544;13.416;2022-07-24T16:37:30;28.00;49.80
13596;DHT22;6868;52.544;13.416;2022-07-24T16:39:58;28.00;50.70
13596;DHT22;6868;52.544;13.416;2022-07-24T16:42:25;28.00;50.70
13596;DHT22;6868;52.544;13.416;2022-07-24T16:44:53;27.90;50.60
13596;DHT22;6868;52.544;13.416;2022-07-24T16:47:20;28.00;51.00
13596;DHT22;6868;52.544;13.416;2022-07-24T16:49:49;28.00;50.60
13596;DHT22;6868;52.544;13.416;2022-07-24T16:52:16;27.90;50.90
13596;DHT22;6868;52.544;13.416;2022-07-24T16:54:43;27.90;51.20
13596;DHT22;6868;52.544;13.416;2022-07-24T16:57:13;27.80;51.60
13596;DHT22;6868;52.544;13.416;2022-07-24T16:59:40;27.80;51.00
13596;DHT22;6868;52.544;13.416;2022-07-24T17:02:09;27.70;52.60
13596;DHT22;6868;52.544;13.416;2022-07-24T17:04:35;27.70;52.40
13596;DHT22;6868;52.544;13.416;2022-07-24T17:07:03;27.50;52.40
13596;DHT22;6868;52.544;13.416;2022-07-24T17:09:30;27.50;52.40
13596;DHT22;6868;52.544;13.416;2022-07-24T17:11:59;27.40;53.20
13596;DHT22;6868;52.544;13.416;2022-07-24T17:14:27;27.40;53.90
13596;DHT22;6868;52.544;13.416;2022-07-24T17:16:54;27.40;54.30
13596;DHT22;6868;52.544;13.416;2022-07-24T17:19:22;27.40;54.00
13596;DHT22;6868;52.544;13.416;2022-07-24T17:21:56;27.40;54.70
13596;DHT22;6868;52.544;13.416;2022-07-24T17:24:23;27.40;54.40
13596;DHT22;6868;52.544;13.416;2022-07-24T17:26:50;27.40;54.60
13596;DHT22;6868;52.544;13.416;2022-07-24T17:29:17;27.30;54.30
13596;DHT22;6868;52.544;13.416;2022-07-24T17:31:43;27.30;54.60
13596;DHT22;6868;52.544;13.416;2022-07-24T17:34:10;27.30;54.60
13596;DHT22;6868;52.544;13.416;2022-07-24T17:36:38;27.10;53.80
13596;DHT22;6868;52.544;13.416;2022-07-24T17:39:05;27.10;54.10
13596;DHT22;6868;52.544;13.416;2022-07-24T17:41:32;27.10;54.50
13596;DHT22;6868;52.544;13.416;2022-07-24T17:44:01;27.10;54.50
13596;DHT22;6868;52.544;13.416;2022-07-24T17:46:27;27.00;54.60
13596;DHT22;6868;52.544;13.416;2022-07-24T17:48:54;27.00;55.10
13596;DHT22;6868;52.544;13.416;2022-07-24T17:51:21;27.10;54.70
13596;DHT22;6868;52.544;13.416;2022-07-24T17:53:49;27.00;55.10
13596;DHT22;6868;52.544;13.416;2022-07-24T17:56:16;27.10;54.90
13596;DHT22;6868;52.544;13.416;2022-07-24T17:58:43;27.10;55.50
13596;DHT22;6868;52.544;13.416;2022-07-24T18:01:09;27.00;55.50
13596;DHT22;6868;52.544;13.416;2022-07-24T18:03:37;26.90;56.30
13596;DHT22;6868;52.544;13.416;2022-07-24T18:06:04;26.80;56.50